createdAt,value
2019-04-11T00:02:06.750Z,7.68
2019-04-11T00:04:42.317Z,7.70
2019-04-11T00:07:33.361Z,7.67
2019-04-11T00:10:06.310Z,7.63
2019-04-11T00:12:39.154Z,7.58
2019-04-11T00:15:12.631Z,7.51
2019-04-11T00:17:48.128Z,7.53
2019-04-11T00:20:22.192Z,7.50
2019-04-11T00:22:57.721Z,7.52
2019-04-11T00:25:29.712Z,7.58
2019-04-11T00:28:02.115Z,7.55
2019-04-11T00:30:34.392Z,7.64
2019-04-11T00:33:09.831Z,7.52
2019-04-11T00:35:42.457Z,7.50
2019-04-11T00:38:14.410Z,7.15
2019-04-11T00:40:46.445Z,7.24
2019-04-11T00:43:30.595Z,7.00
2019-04-11T00:45:53.982Z,7.26
2019-04-11T00:48:27.999Z,7.33
2019-04-11T00:51:01.996Z,7.30
2019-04-11T00:53:34.058Z,7.40
2019-04-11T00:56:08.156Z,7.48
2019-04-11T00:58:43.574Z,7.34
2019-04-11T01:01:17.747Z,7.22
2019-04-11T01:03:49.581Z,7.29
2019-04-11T01:06:21.031Z,7.33
2019-04-11T01:08:52.385Z,7.34
2019-04-11T01:11:27.861Z,7.23
2019-04-11T01:14:01.580Z,7.32
2019-04-11T01:16:52.713Z,7.26
2019-04-11T01:19:26.847Z,7.23
2019-04-11T01:22:01.266Z,7.13
2019-04-11T01:24:33.645Z,7.23
2019-04-11T01:27:07.762Z,7.16
2019-04-11T01:33:06.642Z,7.14
2019-04-11T01:35:38.133Z,7.11
2019-04-11T01:38:12.386Z,7.20
2019-04-11T01:40:46.105Z,7.25
2019-04-11T01:43:18.544Z,7.20
2019-04-11T01:45:52.008Z,7.09
2019-04-11T01:48:36.955Z,7.03
2019-04-11T01:51:08.222Z,7.08
2019-04-11T01:53:40.989Z,7.17
2019-04-11T01:56:14.863Z,7.09
2019-04-11T01:58:48.953Z,7.14
2019-04-11T02:01:28.497Z,7.02
2019-04-11T02:04:21.600Z,6.94
2019-04-11T02:06:54.586Z,7.01
2019-04-11T02:09:26.244Z,6.91
2019-04-11T02:11:58.212Z,6.92
2019-04-11T02:14:33.410Z,6.82
2019-04-11T02:17:06.881Z,6.72
2019-04-11T02:19:38.473Z,6.58
2019-04-11T02:22:28.771Z,6.74
2019-04-11T02:25:28.254Z,6.71
2019-04-11T02:28:04.345Z,6.72
2019-04-11T02:30:44.357Z,6.80
2019-04-11T02:33:18.383Z,6.84
2019-04-11T02:35:52.121Z,6.82
2019-04-11T02:38:24.688Z,6.79
2019-04-11T02:40:58.565Z,6.74
2019-04-11T02:43:31.808Z,6.87
2019-04-11T02:46:13.039Z,6.89
2019-04-11T02:48:38.060Z,6.80
2019-04-11T02:51:12.251Z,6.60
2019-04-11T02:53:47.139Z,6.62
2019-04-11T02:56:21.299Z,6.56
2019-04-11T02:58:57.022Z,6.53
2019-04-11T03:01:29.177Z,6.43
2019-04-11T03:04:01.905Z,6.32
2019-04-11T03:06:36.322Z,6.38
2019-04-11T03:09:07.895Z,6.02
2019-04-11T03:11:40.893Z,6.15
2019-04-11T03:14:14.601Z,6.29
2019-04-11T03:16:57.309Z,6.33
2019-04-11T03:19:42.352Z,6.01
2019-04-11T03:21:59.379Z,6.01
2019-04-11T03:24:35.242Z,6.03
2019-04-11T03:27:09.300Z,6.15
2019-04-11T03:29:43.111Z,6.18
2019-04-11T03:33:01.270Z,6.23
2019-04-11T03:35:45.711Z,6.05
2019-04-11T03:37:53.560Z,6.00
2019-04-11T03:40:22.669Z,6.01
2019-04-11T03:42:50.532Z,5.99
2019-04-11T03:45:34.761Z,6.12
2019-04-11T03:48:04.313Z,6.09
2019-04-11T03:50:23.888Z,6.16
2019-04-11T03:52:56.093Z,6.23
2019-04-11T03:55:30.757Z,6.18
2019-04-11T03:58:05.993Z,5.85
2019-04-11T04:00:43.175Z,5.94
2019-04-11T04:03:14.169Z,6.02
2019-04-11T04:05:48.647Z,6.07
2019-04-11T04:08:24.593Z,6.09
2019-04-11T04:11:12.329Z,5.88
2019-04-11T04:13:49.838Z,5.91
2019-04-11T04:16:40.915Z,5.86
2019-04-11T04:19:27.077Z,5.76
2019-04-11T04:22:13.407Z,5.89
2019-04-11T04:24:46.857Z,5.97
2019-04-11T04:27:23.185Z,5.81
2019-04-11T04:29:58.527Z,5.95
2019-04-11T04:32:30.427Z,5.75
2019-04-11T04:35:07.248Z,5.83
2019-04-11T04:37:40.883Z,5.92
2019-04-11T04:40:31.230Z,5.87
2019-04-11T04:42:52.755Z,5.88
2019-04-11T04:45:23.880Z,5.98
2019-04-11T04:48:04.595Z,5.98
2019-04-11T04:50:34.324Z,6.09
2019-04-11T04:53:07.429Z,6.09
2019-04-11T04:55:43.412Z,5.96
2019-04-11T04:58:17.802Z,5.91
2019-04-11T05:00:53.650Z,5.92
2019-04-11T05:03:26.576Z,5.90
2019-04-11T05:06:01.216Z,5.77
2019-04-11T05:08:35.296Z,6.05
2019-04-11T05:11:09.466Z,5.84
2019-04-11T05:13:44.704Z,5.92
2019-04-11T05:16:17.892Z,5.92
2019-04-11T05:18:50.582Z,5.97
2019-04-11T05:21:23.263Z,6.00
2019-04-11T05:23:57.058Z,6.07
2019-04-11T05:26:28.800Z,5.88
2019-04-11T05:29:00.620Z,5.98
2019-04-11T05:31:36.582Z,5.93
2019-04-11T05:34:09.962Z,5.75
2019-04-11T05:36:41.356Z,5.83
2019-04-11T05:39:15.516Z,5.80
2019-04-11T05:41:48.726Z,5.77
2019-04-11T05:44:22.888Z,5.71
2019-04-11T05:47:00.700Z,5.76
2019-04-11T05:49:39.760Z,5.82
2019-04-11T05:52:12.183Z,5.89
2019-04-11T05:54:49.287Z,5.91
2019-04-11T05:57:26.919Z,5.87
2019-04-11T05:59:57.786Z,5.90
2019-04-11T06:02:37.424Z,5.85
2019-04-11T06:05:32.424Z,6.01
2019-04-11T06:08:06.620Z,5.98
2019-04-11T06:11:02.897Z,5.55
2019-04-11T06:13:42.778Z,5.51
2019-04-11T06:16:16.729Z,5.64
2019-04-11T06:19:06.044Z,5.45
2019-04-11T06:21:50.495Z,5.43
2019-04-11T06:24:35.023Z,5.46
2019-04-11T06:27:14.249Z,5.69
2019-04-11T06:29:59.215Z,5.80
2019-04-11T06:32:48.870Z,5.84
2019-04-11T06:35:30.325Z,5.93
2019-04-11T06:38:21.298Z,5.74
2019-04-11T06:41:02.045Z,5.94
2019-04-11T06:43:46.519Z,5.94
2019-04-11T06:46:48.848Z,5.90
2019-04-11T06:49:34.116Z,5.98
2019-04-11T06:52:08.530Z,6.07
2019-04-11T06:55:10.886Z,6.10
2019-04-11T06:57:44.286Z,6.25
2019-04-11T07:00:16.941Z,6.20
2019-04-11T07:03:01.283Z,6.16
2019-04-11T07:05:35.449Z,6.24
2019-04-11T07:08:09.549Z,6.28
2019-04-11T07:10:48.901Z,6.33
2019-04-11T07:13:27.043Z,6.31
2019-04-11T07:16:04.711Z,6.33
2019-04-11T07:18:57.027Z,6.30
2019-04-11T07:21:35.331Z,6.34
2019-04-11T07:24:28.268Z,6.34
2019-04-11T07:27:04.668Z,6.37
2019-04-11T07:29:56.549Z,6.45
2019-04-11T07:32:29.880Z,6.47
2019-04-11T07:35:30.197Z,6.47
2019-04-11T07:38:02.874Z,6.55
2019-04-11T07:40:54.635Z,6.42
2019-04-11T07:43:31.550Z,6.45
2019-04-11T07:46:25.693Z,6.62
2019-04-11T07:49:04.339Z,6.58
2019-04-11T07:51:50.818Z,6.74
2019-04-11T07:54:26.056Z,6.75
2019-04-11T07:57:22.771Z,6.62
2019-04-11T08:00:12.800Z,6.54
2019-04-11T08:03:10.410Z,6.61
2019-04-11T08:06:10.908Z,6.69
2019-04-11T08:09:05.094Z,6.91
2019-04-11T08:11:46.215Z,7.09
2019-04-11T08:14:34.845Z,6.98
2019-04-11T08:17:11.484Z,7.07
2019-04-11T08:20:02.911Z,7.14
2019-04-11T08:22:43.991Z,7.25
2019-04-11T08:25:25.028Z,7.13
2019-04-11T08:28:05.888Z,7.01
2019-04-11T08:30:55.213Z,6.97
2019-04-11T08:33:29.307Z,6.87
2019-04-11T08:36:24.037Z,6.91
2019-04-11T08:38:57.030Z,6.92
2019-04-11T08:41:42.020Z,6.86
2019-04-11T08:44:34.686Z,7.02
2019-04-11T08:47:16.265Z,7.04
2019-04-11T08:49:52.231Z,7.23
2019-04-11T08:52:32.133Z,7.27
2019-04-11T08:55:08.215Z,7.31
2019-04-11T08:57:42.654Z,7.40
2019-04-11T09:00:55.687Z,7.40
2019-04-11T09:03:59.304Z,7.31
2019-04-11T09:06:24.907Z,7.43
2019-04-11T09:09:20.910Z,7.37
2019-04-11T09:11:58.246Z,7.45
2019-04-11T09:14:50.572Z,7.42
2019-04-11T09:17:55.139Z,7.45
2019-04-11T09:20:35.946Z,7.55
2019-04-11T09:23:09.428Z,7.65
2019-04-11T09:26:20.470Z,7.58
2019-04-11T09:28:55.739Z,7.76
2019-04-11T09:31:45.749Z,7.94
2019-04-11T09:34:52.297Z,7.88
2019-04-11T09:37:37.905Z,7.88
2019-04-11T09:40:29.911Z,7.90
2019-04-11T09:43:12.415Z,7.72
2019-04-11T09:45:57.714Z,7.80
2019-04-11T09:49:04.961Z,7.79
2019-04-11T09:51:53.121Z,7.92
2019-04-11T09:54:44.276Z,7.92
2019-04-11T09:57:37.164Z,8.02
2019-04-11T10:00:19.124Z,7.90
2019-04-11T10:02:56.149Z,7.87
2019-04-11T10:05:46.751Z,7.97
2019-04-11T10:08:35.038Z,7.99
2019-04-11T10:11:46.321Z,7.82
2019-04-11T10:14:19.661Z,7.96
2019-04-11T10:17:10.695Z,8.02
2019-04-11T10:19:44.905Z,8.07
2019-04-11T10:22:45.988Z,8.12
2019-04-11T10:25:25.326Z,8.17
2019-04-11T10:28:22.781Z,8.23
2019-04-11T10:31:04.363Z,8.11
2019-04-11T10:33:55.459Z,7.83
2019-04-11T10:36:53.983Z,7.89
2019-04-11T10:39:51.284Z,7.73
2019-04-11T10:42:26.674Z,7.64
2019-04-11T10:45:31.030Z,7.56
2019-04-11T10:48:05.487Z,7.57
2019-04-11T10:51:00.421Z,7.61
2019-04-11T10:53:35.287Z,7.65
2019-04-11T10:56:26.367Z,7.73
2019-04-11T10:59:01.682Z,7.84
2019-04-11T11:01:50.995Z,7.90
2019-04-11T11:04:32.620Z,7.87
2019-04-11T11:07:09.892Z,7.79
2019-04-11T11:09:48.466Z,7.67
2019-04-11T11:12:29.619Z,7.47
2019-04-11T11:15:20.801Z,7.48
2019-04-11T11:18:38.170Z,7.60
2019-04-11T11:21:00.286Z,7.57
2019-04-11T11:23:49.193Z,7.57
2019-04-11T11:26:29.646Z,7.53
2019-04-11T11:29:26.637Z,7.56
2019-04-11T11:32:05.132Z,7.57
2019-04-11T11:34:55.019Z,7.58
2019-04-11T11:37:45.243Z,7.52
2019-04-11T11:40:38.374Z,7.71
2019-04-11T11:43:19.412Z,7.73
2019-04-11T11:46:14.200Z,7.71
2019-04-11T11:48:52.273Z,7.76
2019-04-11T11:51:41.499Z,7.68
2019-04-11T11:54:20.113Z,7.75
2019-04-11T11:56:56.551Z,7.85
2019-04-11T11:59:40.599Z,7.73
2019-04-11T12:02:23.767Z,7.75
2019-04-11T12:05:07.891Z,7.70
2019-04-11T12:07:43.088Z,7.89
2019-04-11T12:10:28.666Z,7.77
2019-04-11T12:13:20.340Z,7.64
2019-04-11T12:16:08.106Z,7.78
2019-04-11T12:19:04.918Z,7.73
2019-04-11T12:21:37.109Z,7.74
2019-04-11T12:24:32.405Z,7.72
2019-04-11T12:27:26.869Z,7.70
2019-04-11T12:30:23.463Z,7.66
2019-04-11T12:33:10.961Z,7.65
2019-04-11T12:36:08.218Z,7.69
2019-04-11T12:39:05.721Z,7.70
2019-04-11T12:41:52.987Z,7.76
2019-04-11T12:44:50.175Z,7.76
2019-04-11T12:47:38.295Z,7.80
2019-04-11T12:50:31.591Z,7.73
2019-04-11T12:53:24.343Z,7.82
2019-04-11T12:56:21.636Z,7.76
2019-04-11T12:59:08.471Z,7.78
2019-04-11T13:01:59.612Z,7.78
2019-04-11T13:04:33.195Z,7.89
2019-04-11T13:07:28.630Z,7.87
2019-04-11T13:10:21.234Z,7.76
2019-04-11T13:13:20.008Z,7.68
2019-04-11T13:16:19.720Z,7.58
2019-04-11T13:19:20.038Z,7.63
2019-04-11T13:21:58.098Z,7.77
2019-04-11T13:25:00.475Z,7.84
2019-04-11T13:27:47.765Z,7.87
2019-04-11T13:30:38.769Z,7.90
2019-04-11T13:33:23.382Z,7.48
2019-04-11T13:36:13.385Z,7.51
2019-04-11T13:38:46.806Z,7.60
2019-04-11T13:41:56.004Z,7.50
2019-04-11T13:44:31.784Z,7.45
2019-04-11T13:47:23.829Z,7.55
2019-04-11T13:49:57.637Z,7.72
2019-04-11T13:52:49.218Z,7.66
2019-04-11T13:55:27.708Z,7.64
2019-04-11T13:58:27.685Z,7.69
2019-04-11T14:01:00.716Z,7.72
2019-04-11T14:03:54.211Z,7.65
2019-04-11T14:06:37.305Z,7.69
2019-04-11T14:09:38.236Z,7.82
2019-04-11T14:12:13.490Z,7.74
2019-04-11T14:14:58.373Z,7.67
2019-04-11T14:17:59.040Z,7.74
2019-04-11T14:20:36.144Z,7.73
2019-04-11T14:23:28.738Z,7.65
2019-04-11T14:26:18.292Z,7.69
2019-04-11T14:28:58.122Z,7.58
2019-04-11T14:31:53.859Z,7.50
2019-04-11T14:35:04.492Z,7.60
2019-04-11T14:37:44.474Z,7.70
2019-04-11T14:40:35.160Z,7.79
2019-04-11T14:43:33.431Z,7.64
2019-04-11T14:46:23.611Z,7.55
2019-04-11T14:49:05.618Z,7.42
2019-04-11T14:51:58.432Z,7.60
2019-04-11T14:54:41.867Z,7.68
2019-04-11T14:57:22.747Z,7.80
2019-04-11T15:00:15.652Z,7.67
2019-04-11T15:02:58.518Z,7.72
2019-04-11T15:05:55.809Z,7.51
2019-04-11T15:08:42.545Z,7.60
2019-04-11T15:11:40.156Z,7.69
2019-04-11T15:14:35.618Z,7.47
2019-04-11T15:17:18.170Z,7.43
2019-04-11T15:20:28.035Z,7.46
2019-04-11T15:23:11.319Z,7.62
2019-04-11T15:26:10.508Z,7.64
2019-04-11T15:28:54.005Z,7.60
2019-04-11T15:31:52.728Z,7.66
2019-04-11T15:34:39.186Z,7.48
2019-04-11T15:37:45.576Z,7.56
2019-04-11T15:40:48.699Z,7.63
2019-04-11T15:43:42.045Z,7.66
2019-04-11T15:46:38.586Z,7.72
2019-04-11T15:49:31.180Z,7.64
2019-04-11T15:52:07.011Z,7.60
2019-04-11T15:54:57.956Z,7.63
2019-04-11T15:57:36.089Z,7.70
2019-04-11T16:00:29.037Z,7.74
2019-04-11T16:03:08.283Z,7.64
2019-04-11T16:06:01.687Z,7.72
2019-04-11T16:08:44.827Z,7.77
2019-04-11T16:11:51.883Z,7.55
2019-04-11T16:14:38.776Z,7.64
2019-04-11T16:17:28.951Z,7.67
2019-04-11T16:20:22.257Z,7.68
2019-04-11T16:23:15.029Z,7.64
2019-04-11T16:25:53.624Z,7.69
2019-04-11T16:28:44.478Z,7.72
2019-04-11T16:31:16.339Z,7.75
2019-04-11T16:34:11.406Z,7.68
2019-04-11T16:36:52.180Z,7.76
2019-04-11T16:39:50.294Z,7.76
2019-04-11T16:42:31.344Z,7.72
2019-04-11T16:45:24.687Z,7.71
2019-04-11T16:48:02.761Z,7.75
2019-04-11T16:50:37.665Z,7.66
2019-04-11T16:53:14.111Z,7.62
2019-04-11T16:55:49.612Z,7.61
2019-04-11T16:58:23.143Z,7.57
2019-04-11T17:00:58.266Z,7.54
2019-04-11T17:03:32.452Z,7.42
2019-04-11T17:06:30.109Z,7.45
2019-04-11T17:09:08.936Z,7.55
2019-04-11T17:11:42.949Z,7.48
2019-04-11T17:14:15.118Z,7.40
2019-04-11T17:16:47.485Z,7.45
2019-04-11T17:19:23.638Z,7.52
2019-04-11T17:21:55.263Z,7.30
2019-04-11T17:24:27.418Z,7.04
2019-04-11T17:26:59.199Z,6.92
2019-04-11T17:29:30.821Z,6.90
2019-04-11T17:32:02.665Z,6.84
2019-04-11T17:34:34.937Z,6.71
2019-04-11T17:37:09.045Z,6.71
2019-04-11T17:39:40.613Z,6.68
2019-04-11T17:42:14.069Z,6.60
2019-04-11T17:44:47.408Z,6.56
2019-04-11T17:47:18.654Z,6.45
2019-04-11T17:49:50.153Z,6.42
2019-04-11T17:52:22.026Z,6.42
2019-04-11T17:54:54.211Z,6.36
2019-04-11T17:57:27.877Z,6.25
2019-04-11T17:59:59.819Z,6.27
2019-04-11T18:02:32.237Z,6.31
2019-04-11T18:05:03.502Z,6.51
2019-04-11T18:07:35.310Z,6.63
2019-04-11T18:10:08.684Z,6.72
2019-04-11T18:12:42.478Z,6.79
2019-04-11T18:15:13.978Z,6.78
2019-04-11T18:17:45.217Z,6.87
2019-04-11T18:20:16.723Z,6.79
2019-04-11T18:22:50.350Z,6.83
2019-04-11T18:25:22.822Z,6.88
2019-04-11T18:27:54.698Z,6.87
2019-04-11T18:30:27.531Z,6.87
2019-04-11T18:33:02.883Z,6.87
2019-04-11T18:35:35.485Z,7.02
2019-04-11T18:38:07.261Z,6.99
2019-04-11T18:40:40.246Z,6.94
2019-04-11T18:43:16.000Z,6.79
2019-04-11T18:45:48.072Z,6.60
2019-04-11T18:48:19.564Z,6.66
2019-04-11T18:50:53.179Z,6.75
2019-04-11T18:53:25.990Z,6.80
2019-04-11T18:55:57.744Z,6.77
2019-04-11T18:58:33.705Z,6.68
2019-04-11T19:01:08.874Z,6.68
2019-04-11T19:03:41.120Z,6.76
2019-04-11T19:06:13.805Z,6.79
2019-04-11T19:08:45.166Z,6.83
2019-04-11T19:11:16.651Z,6.83
2019-04-11T19:13:48.008Z,6.84
2019-04-11T19:16:20.011Z,6.73
2019-04-11T19:18:52.050Z,6.66
2019-04-11T19:21:23.432Z,6.60
2019-04-11T19:23:55.152Z,6.28
2019-04-11T19:26:26.832Z,6.45
2019-04-11T19:29:00.210Z,6.55
2019-04-11T19:31:33.131Z,6.58
2019-04-11T19:34:08.619Z,6.57
2019-04-11T19:36:39.923Z,6.45
2019-04-11T19:39:14.654Z,6.50
2019-04-11T19:41:48.124Z,6.64
2019-04-11T19:44:20.889Z,6.65
2019-04-11T19:46:52.125Z,6.59
2019-04-11T19:49:24.078Z,6.55
2019-04-11T19:51:58.686Z,6.60
2019-04-11T19:54:32.751Z,6.25
2019-04-11T19:57:05.750Z,6.41
2019-04-11T19:59:39.132Z,6.44
2019-04-11T20:02:11.961Z,6.49
2019-04-11T20:05:01.667Z,6.51
2019-04-11T20:07:50.919Z,6.48
2019-04-11T20:10:40.109Z,6.57
2019-04-11T20:13:32.206Z,6.60
2019-04-11T20:16:21.125Z,6.49
2019-04-11T20:19:11.188Z,6.47
2019-04-11T20:22:00.392Z,6.52
2019-04-11T20:24:49.844Z,6.44
2019-04-11T20:27:39.349Z,6.44
2019-04-11T20:30:29.220Z,6.43
2019-04-11T20:33:27.069Z,6.44
2019-04-11T20:36:11.277Z,6.34
2019-04-11T20:39:01.157Z,6.38
2019-04-11T20:41:53.210Z,6.40
2019-04-11T20:44:42.738Z,6.45
2019-04-11T20:47:33.513Z,6.46
2019-04-11T20:50:22.692Z,6.47
2019-04-11T20:53:13.324Z,6.44
2019-04-11T20:56:03.887Z,6.29
2019-04-11T20:58:53.436Z,6.29
2019-04-11T21:01:43.288Z,6.29
2019-04-11T21:04:33.137Z,6.27
2019-04-11T21:07:22.876Z,6.22
2019-04-11T21:10:12.764Z,6.22
2019-04-11T21:13:06.817Z,6.24
2019-04-11T21:15:54.446Z,6.21
2019-04-11T21:18:43.721Z,6.23
2019-04-11T21:21:33.418Z,6.24
2019-04-11T21:24:22.930Z,6.30
2019-04-11T21:27:13.319Z,6.11
2019-04-11T21:30:03.487Z,6.10
2019-04-11T21:32:54.141Z,6.05
2019-04-11T21:35:43.855Z,5.83
2019-04-11T21:38:34.052Z,5.85
2019-04-11T21:41:23.538Z,6.00
2019-04-11T21:44:13.010Z,5.93
2019-04-11T21:47:02.887Z,5.80
2019-04-11T21:49:52.073Z,6.00
2019-04-11T21:52:43.682Z,5.77
2019-04-11T21:55:33.121Z,5.88
2019-04-11T21:58:23.188Z,5.95
2019-04-11T22:01:14.524Z,5.78
2019-04-11T22:04:04.327Z,5.70
2019-04-11T22:06:53.525Z,5.53
2019-04-11T22:09:43.487Z,5.50
2019-04-11T22:12:33.022Z,5.50
2019-04-11T22:15:23.076Z,5.61
2019-04-11T22:18:15.867Z,5.64
2019-04-11T22:21:04.016Z,5.30
2019-04-11T22:23:53.278Z,5.35
2019-04-11T22:26:43.203Z,5.33
2019-04-11T22:29:32.736Z,5.28
2019-04-11T22:32:23.794Z,5.29
2019-04-11T22:35:13.234Z,5.27
2019-04-11T22:38:03.239Z,5.47
2019-04-11T22:40:53.162Z,5.53
2019-04-11T22:43:43.249Z,5.42
2019-04-11T22:46:32.692Z,5.29
2019-04-11T22:49:22.600Z,5.24
2019-04-11T22:52:12.486Z,5.35
2019-04-11T22:55:02.044Z,5.25
2019-04-11T22:57:51.701Z,5.17
2019-04-11T23:00:44.895Z,5.25
2019-04-11T23:03:47.565Z,5.26
2019-04-11T23:06:37.286Z,5.17
2019-04-11T23:09:27.357Z,5.20
2019-04-11T23:12:16.651Z,5.09
2019-04-11T23:15:07.550Z,5.19
2019-04-11T23:17:58.422Z,5.14
2019-04-11T23:20:47.641Z,5.22
2019-04-11T23:23:37.579Z,5.17
2019-04-11T23:26:26.915Z,5.17
2019-04-11T23:29:16.692Z,5.10
2019-04-11T23:32:06.338Z,5.05
2019-04-11T23:34:55.720Z,5.05
2019-04-11T23:37:51.975Z,5.06
2019-04-11T23:40:41.282Z,5.08
2019-04-11T23:43:31.360Z,5.04
2019-04-11T23:46:21.457Z,5.00
2019-04-11T23:49:11.275Z,4.98
2019-04-11T23:52:00.458Z,4.88
2019-04-11T23:54:50.113Z,4.91
2019-04-11T23:57:39.875Z,5.05
